MET'MAP v2.0
soon released !

Expected late october,
this new version will be
more efficient, smarter,
and hosted on a brand new
server x3 powerfull...
...and still free !


Not compatible ?
Try the mobile version !

LOG IN : | Subscribe | Disclaimer | Who is Orbifly ? |
ICAO code :

TAF - EGYM RAF Marham - 24 Sep 2020 13:41 UTC
Data Sources :     NOAA   


- Airport Elevation : 75 ft
- IATA code : MRH
- No reported NOTAMs.


EGYM - RAF Marham

Latest METAR recorded : 2015/08/11 07:50 EGYM 110750Z 33003KT 9999 FEW045 BKN200 14/11 Q1019 BLU NOSIG
TAF TAF EGYM
Valid from the 24 at 12:00 until the 24 at 21:00 UTC


241100Z 2412/2421 24010KT 9999 FEW015 SCT025
TEMPO 2412/2421 SCT015
PROB30
TEMPO 2412/2416 24015G25KT 4000 SHRA SCT007 BKN015TCU
PROB30
TEMPO 2416/2420 26015G25KT 3000 +SHRA SCT007 BKN015CB

Source NOAA


MET'MAP, your aeronautical weather chart ! - Copyright ORBIFLY December 2007

Programming & Development : Alexandra Zaïnal
Co-Developer : Marc-Olivier Méhu
Technical & hardware support : Manuel Goepfert
Concept & Financing : Baudouin d'Aumeries